Time;durP1;ratioP1;P1;durP2;ratioP2;P2;SDS_P1;SDS_P2;PMS_P1;PMS_P2;Temp;Humidity;BMP_temperature;BMP_pressure;BME280_temperature;BME280_humidity;BME280_pressure;Samples;Min_cycle;Max_cycle;Signal;HPM_P1;HPM_P2
2022/09/07 00:01:00;;;;;;;6.60;3.20;;;;;;;13.87;64.10;100816.50;1640040;86;21085;-76
2022/09/07 00:03:27;;;;;;;5.53;2.62;;;;;;;13.97;64.12;100816.95;1637931;87;21566;-76
2022/09/07 00:05:54;;;;;;;5.62;2.75;;;;;;;14.02;64.05;100809.67;1638666;86;22046;-76
2022/09/07 00:08:25;;;;;;;6.30;2.83;;;;;;;14.05;63.76;100814.38;1637839;87;21078;-76
2022/09/07 00:11:02;;;;;;;5.45;3.12;;;;;;;14.08;63.67;100813.81;1638156;86;21053;-76
2022/09/07 00:13:34;;;;;;;5.08;3.00;;;;;;;14.12;63.73;100810.13;1638025;86;21105;-76
2022/09/07 00:16:05;;;;;;;7.03;2.80;;;;;;;14.13;63.56;100806.09;1638530;87;21038;-76
2022/09/07 00:18:32;;;;;;;8.00;3.45;;;;;;;14.14;63.55;100801.23;1638202;86;21138;-76
2022/09/07 00:21:02;;;;;;;6.40;2.75;;;;;;;14.16;63.52;100795.44;1637742;86;21386;-76
2022/09/07 00:23:30;;;;;;;;;;;;;;;14.16;63.53;100794.13;1640422;86;21615;-76
2022/09/07 00:26:05;;;;;;;6.55;3.20;;;;;;;14.21;63.52;100800.48;1638411;86;20582;-76
2022/09/07 00:28:32;;;;;;;6.60;3.70;;;;;;;14.23;63.38;100799.95;1637904;87;21105;-76
2022/09/07 00:30:59;;;;;;;6.33;3.42;;;;;;;14.22;63.12;100796.47;1638173;87;21287;-76
2022/09/07 00:33:27;;;;;;;5.67;2.83;;;;;;;14.22;63.17;100797.78;1637828;87;21010;-76
2022/09/07 00:35:54;;;;;;;6.20;3.25;;;;;;;14.24;63.32;100790.67;1638228;87;21065;-76
2022/09/07 00:38:21;;;;;;;6.03;3.05;;;;;;;14.28;63.23;100792.69;1638189;86;21010;-76
2022/09/07 00:40:48;;;;;;;11.25;3.50;;;;;;;14.25;63.21;100791.52;1638019;86;21026;-75
2022/09/07 00:43:33;;;;;;;7.92;3.33;;;;;;;14.26;63.41;100790.58;1638040;86;21140;-75
2022/09/07 00:46:03;;;;;;;8.20;3.35;;;;;;;14.24;63.30;100785.84;1637682;86;21132;-75
2022/09/07 00:48:41;;;;;;;10.23;3.50;;;;;;;14.19;63.44;100786.06;1638603;86;21094;-75
2022/09/07 00:51:13;;;;;;;6.12;3.25;;;;;;;14.12;63.43;100782.45;1637739;86;21079;-75
2022/09/07 00:53:48;;;;;;;6.35;3.22;;;;;;;14.04;63.55;100794.66;1638290;87;21595;-75
2022/09/07 00:56:15;;;;;;;4.72;2.80;;;;;;;13.99;63.63;100795.32;1638011;87;21123;-75
2022/09/07 00:58:43;;;;;;;9.33;3.37;;;;;;;13.97;63.68;100798.05;1638076;87;21542;-75
2022/09/07 01:01:10;;;;;;;5.08;2.90;;;;;;;13.96;63.71;100795.00;1637288;86;21077;-75
2022/09/07 01:03:46;;;;;;;9.18;3.10;;;;;;;13.89;63.63;100791.41;1641098;87;21093;-75
2022/09/07 01:06:21;;;;;;;6.03;3.22;;;;;;;13.83;63.63;100796.02;1637435;87;21022;-75
2022/09/07 01:08:50;;;;;;;4.67;2.98;;;;;;;13.75;63.72;100790.70;1636964;86;22283;-75
2022/09/07 01:11:19;;;;;;;7.28;3.10;;;;;;;13.62;63.88;100794.31;1637842;87;21022;-75
2022/09/07 01:13:48;;;;;;;8.13;3.30;;;;;;;13.53;64.14;100790.31;1637928;86;21454;-75
2022/09/07 01:16:26;;;;;;;5.62;3.12;;;;;;;13.46;64.43;100783.58;1637948;86;21271;-75
2022/09/07 01:19:16;;;;;;;6.90;2.87;;;;;;;13.36;64.60;100780.97;1638184;86;21309;-75
2022/09/07 01:22:26;;;;;;;8.18;3.55;;;;;;;13.28;64.75;100781.75;1637970;86;21109;-75
2022/09/07 01:25:04;;;;;;;6.17;3.15;;;;;;;13.20;64.93;100780.72;1637618;87;21018;-75
2022/09/07 01:28:02;;;;;;;4.78;2.85;;;;;;;13.10;65.20;100792.06;1638340;87;21082;-75
2022/09/07 01:30:33;;;;;;;4.67;3.33;;;;;;;13.06;65.42;100785.23;1637544;87;21606;-75
2022/09/07 01:33:30;;;;;;;6.33;2.83;;;;;;;13.01;65.52;100783.71;1638084;86;21073;-75
2022/09/07 01:36:26;;;;;;;5.47;2.77;;;;;;;12.93;65.61;100778.29;1637765;87;21944;-75
2022/09/07 01:39:03;;;;;;;6.95;3.30;;;;;;;12.87;65.86;100772.44;1638714;87;21057;-75
2022/09/07 01:41:44;;;;;;;5.45;3.50;;;;;;;12.78;66.05;100770.19;1637845;86;21069;-75
2022/09/07 01:44:27;;;;;;;7.70;3.25;;;;;;;12.76;66.21;100769.38;1637857;87;21027;-75
2022/09/07 01:47:29;;;;;;;7.20;2.75;;;;;;;12.68;66.35;100761.80;1634146;86;21081;-75
2022/09/07 01:50:11;;;;;;;4.85;3.12;;;;;;;12.65;66.51;100762.77;1577796;88;21145;-75
2022/09/07 01:52:45;;;;;;;5.42;3.20;;;;;;;12.61;66.71;100758.56;1576347;91;21105;-75
2022/09/07 01:55:34;;;;;;;5.47;3.30;;;;;;;12.61;66.88;100755.94;1577596;90;21543;-75
2022/09/07 01:58:30;;;;;;;5.67;2.85;;;;;;;12.63;67.16;100758.02;1577461;91;21013;-75
2022/09/07 02:01:14;;;;;;;7.35;3.08;;;;;;;12.67;67.12;100758.78;1576645;88;21476;-75
2022/09/07 02:03:53;;;;;;;4.62;2.67;;;;;;;12.73;67.40;100761.16;1547384;91;21101;-75
2022/09/07 02:06:41;;;;;;;4.97;2.67;;;;;;;12.76;67.21;100756.23;1574639;91;21101;-74
2022/09/07 02:09:22;;;;;;;7.15;3.30;;;;;;;12.70;67.18;100750.77;1575937;91;21058;-75
2022/09/07 02:11:50;;;;;;;6.60;3.17;;;;;;;12.68;67.20;100748.17;1575644;91;21109;-75
2022/09/07 02:14:24;;;;;;;8.03;3.25;;;;;;;12.67;67.42;100746.94;1575796;91;21109;-75
2022/09/07 02:16:57;;;;;;;6.20;2.92;;;;;;;12.69;67.49;100743.34;1574912;91;21133;-75
2022/09/07 02:19:28;;;;;;;6.33;3.37;;;;;;;12.72;67.52;100752.41;1571043;90;21054;-75
2022/09/07 02:22:00;;;;;;;6.60;3.15;;;;;;;12.71;67.48;100752.45;1569528;91;21120;-75
2022/09/07 02:24:34;;;;;;;4.55;2.92;;;;;;;12.69;67.55;100749.91;1579525;89;21475;-75
2022/09/07 02:27:10;;;;;;;5.28;3.10;;;;;;;12.66;67.53;100751.31;1600731;89;21045;-76
2022/09/07 02:29:38;;;;;;;7.58;3.10;;;;;;;12.62;67.49;100753.69;1599183;89;21115;-75
2022/09/07 02:32:06;;;;;;;8.48;2.92;;;;;;;12.55;67.54;100754.84;1598680;89;21065;-75
2022/09/07 02:34:34;;;;;;;7.65;3.20;;;;;;;12.51;67.71;100744.05;1602913;89;21041;-75
2022/09/07 02:37:03;;;;;;;6.15;3.20;;;;;;;12.48;67.73;100748.13;1599468;89;21042;-74
2022/09/07 02:39:31;;;;;;;6.10;3.25;;;;;;;12.43;67.74;100747.44;1599702;89;21092;-75
2022/09/07 02:41:58;;;;;;;6.85;3.98;;;;;;;12.40;68.03;100750.20;1600453;89;21963;-75
2022/09/07 02:44:33;;;;;;;6.12;2.98;;;;;;;12.39;68.14;100751.12;1599240;89;21025;-75
2022/09/07 02:47:08;;;;;;;4.97;3.33;;;;;;;12.36;68.25;100742.90;1599072;89;21057;-75
2022/09/07 02:50:08;;;;;;;5.83;3.20;;;;;;;12.35;68.23;100742.95;1599063;89;21568;-75
2022/09/07 02:53:14;;;;;;;5.62;3.08;;;;;;;12.31;68.33;100740.90;1599359;89;21546;-75
2022/09/07 02:55:58;;;;;;;6.40;3.08;;;;;;;12.26;68.43;100745.01;1602116;89;21209;-75
2022/09/07 02:58:49;;;;;;;5.67;2.98;;;;;;;12.21;68.53;100742.16;1572259;89;20914;-75
2022/09/07 03:01:48;;;;;;;5.55;3.08;;;;;;;12.21;68.61;100746.10;1622056;87;21093;-75
2022/09/07 03:04:26;;;;;;;4.92;3.00;;;;;;;12.15;68.91;100749.82;1637087;86;21022;-75
2022/09/07 03:07:04;;;;;;;5.50;3.22;;;;;;;12.08;68.83;100752.27;1604863;87;22210;-75
2022/09/07 03:09:37;;;;;;;4.60;3.10;;;;;;;12.06;69.22;100746.23;1637722;87;21135;-75
2022/09/07 03:12:06;;;;;;;7.03;2.90;;;;;;;12.02;69.22;100747.25;1637531;87;21089;-75
2022/09/07 03:14:35;;;;;;;6.33;3.20;;;;;;;12.00;69.57;100753.05;1637719;87;21025;-75
2022/09/07 03:17:02;;;;;;;5.87;3.08;;;;;;;11.98;69.60;100746.98;1637723;87;21571;-75
2022/09/07 03:19:29;;;;;;;5.95;2.90;;;;;;;11.93;69.76;100744.52;1637943;87;21259;-75
2022/09/07 03:21:56;;;;;;;6.53;3.10;;;;;;;11.88;70.09;100738.57;1638530;87;21167;-75
2022/09/07 03:24:23;;;;;;;4.83;3.22;;;;;;;11.86;70.14;100743.05;1637799;87;21018;-75
2022/09/07 03:26:50;;;;;;;6.87;3.10;;;;;;;11.82;70.27;100739.62;1638006;87;21069;-75
2022/09/07 03:29:18;;;;;;;4.45;3.05;;;;;;;11.81;70.67;100742.32;1638014;87;21031;-75
2022/09/07 03:31:46;;;;;;;5.95;2.95;;;;;;;11.79;70.64;100732.32;1637946;87;21018;-75
2022/09/07 03:34:13;;;;;;;7.58;2.92;;;;;;;11.75;70.81;100728.95;1638045;87;21279;-75
2022/09/07 03:36:40;;;;;;;4.67;2.87;;;;;;;11.74;70.87;100723.28;1637785;87;21515;-75
2022/09/07 03:39:10;;;;;;;6.55;3.15;;;;;;;11.74;70.83;100722.44;1638166;87;21736;-76
2022/09/07 03:41:37;;;;;;;;;;;;;;;11.71;70.91;100718.15;1640341;87;21519;-75
2022/09/07 03:44:06;;;;;;;6.47;2.83;;;;;;;11.68;71.12;100723.98;1638064;87;20464;-75
2022/09/07 03:46:34;;;;;;;6.12;3.50;;;;;;;11.64;71.16;100718.42;1637929;87;21140;-75
2022/09/07 03:49:01;;;;;;;5.97;3.20;;;;;;;11.63;71.14;100709.70;1637844;87;21063;-75
2022/09/07 03:51:28;;;;;;;5.50;2.75;;;;;;;11.62;71.09;100717.19;1637880;87;21081;-75
2022/09/07 03:53:56;;;;;;;5.33;2.87;;;;;;;11.58;71.12;100713.82;1633598;87;21458;-75
2022/09/07 03:56:24;;;;;;;5.33;2.83;;;;;;;11.55;71.12;100713.05;1637296;87;21014;-75
2022/09/07 03:58:54;;;;;;;5.12;3.12;;;;;;;11.53;71.23;100706.56;1637916;87;22086;-75
2022/09/07 04:01:24;;;;;;;5.08;2.90;;;;;;;11.52;71.23;100706.60;1637583;86;21140;-75
2022/09/07 04:03:52;;;;;;;8.33;2.85;;;;;;;11.49;71.26;100705.41;1637587;87;20977;-75
2022/09/07 04:06:19;;;;;;;7.15;3.35;;;;;;;11.46;71.25;100712.93;1637506;87;21304;-75
2022/09/07 04:08:47;;;;;;;7.12;3.02;;;;;;;11.46;71.50;100710.77;1637662;86;21500;-75
2022/09/07 04:11:17;;;;;;;6.30;3.10;;;;;;;11.46;71.50;100714.24;1638044;86;21103;-75
2022/09/07 04:13:45;;;;;;;6.03;3.15;;;;;;;11.45;71.58;100710.38;1637307;87;21531;-76
2022/09/07 04:16:22;;;;;;;6.83;3.27;;;;;;;11.43;71.65;100718.29;1638134;86;21089;-75
2022/09/07 04:18:50;;;;;;;6.30;3.10;;;;;;;11.42;71.91;100712.66;1637606;86;21105;-75
2022/09/07 04:21:18;;;;;;;7.27;3.00;;;;;;;11.48;71.88;100712.89;1637581;87;21018;-76
2022/09/07 04:23:45;;;;;;;7.23;2.60;;;;;;;11.49;71.93;100721.16;1637523;87;21144;-75
2022/09/07 04:26:19;;;;;;;6.25;3.05;;;;;;;11.50;71.91;100717.17;1637337;87;21503;-76
2022/09/07 04:28:46;;;;;;;6.50;2.87;;;;;;;11.59;71.98;100723.86;1637925;87;21574;-75
2022/09/07 04:31:15;;;;;;;4.08;2.83;;;;;;;11.65;71.51;100717.06;1637776;86;21406;-75
2022/09/07 04:33:46;;;;;;;6.53;2.90;;;;;;;11.69;71.25;100713.86;1637583;86;21053;-76
2022/09/07 04:36:14;;;;;;;4.87;2.42;;;;;;;11.71;71.25;100712.05;1637696;87;21155;-75
2022/09/07 04:38:43;;;;;;;5.10;2.67;;;;;;;11.78;71.28;100713.09;1637776;86;21010;-75
2022/09/07 04:41:16;;;;;;;6.15;2.45;;;;;;;11.82;70.88;100705.48;1636173;87;21065;-84
2022/09/07 04:43:44;;;;;;;6.50;2.58;;;;;;;11.88;70.97;100703.11;1635331;87;21097;-83
2022/09/07 04:46:25;;;;;;;4.53;2.62;;;;;;;11.95;70.84;100705.92;1634754;86;21647;-81
2022/09/07 04:48:54;;;;;;;;;;;;;;;12.01;70.63;100704.83;1636872;87;21054;-82
2022/09/07 04:51:23;;;;;;;4.00;2.40;;;;;;;12.07;70.52;100708.53;1634692;87;20213;-81
2022/09/07 04:53:53;;;;;;;5.05;2.40;;;;;;;12.11;70.46;100706.20;1635102;87;21618;-83
2022/09/07 04:56:21;;;;;;;4.67;2.40;;;;;;;12.17;70.44;100710.36;1635922;86;21125;-84
2022/09/07 04:58:49;;;;;;;5.70;2.40;;;;;;;12.20;70.35;100711.55;1634529;86;21045;-81
2022/09/07 05:01:19;;;;;;;4.17;2.80;;;;;;;12.22;70.35;100717.15;1634120;86;22041;-81
2022/09/07 05:03:47;;;;;;;5.15;2.60;;;;;;;12.22;70.33;100719.78;1633695;86;21327;-85
2022/09/07 05:06:17;;;;;;;5.83;2.50;;;;;;;12.26;70.36;100719.19;1634333;86;21490;-84
2022/09/07 05:08:47;;;;;;;6.17;2.65;;;;;;;12.27;70.37;100718.27;1635088;86;21479;-84
2022/09/07 05:11:16;;;;;;;4.62;2.40;;;;;;;12.27;70.21;100717.80;1633927;86;21080;-83
2022/09/07 05:13:43;;;;;;;4.40;2.30;;;;;;;12.28;70.20;100720.00;1635687;86;21120;-81
2022/09/07 05:16:19;;;;;;;7.75;2.47;;;;;;;12.30;69.96;100724.71;1633483;86;21073;-84
2022/09/07 05:18:57;;;;;;;4.80;2.47;;;;;;;12.32;69.96;100725.98;1634806;86;21085;-84
2022/09/07 05:21:28;;;;;;;5.05;2.30;;;;;;;12.34;69.87;100722.84;1634085;86;21057;-84
2022/09/07 05:23:58;;;;;;;3.45;2.25;;;;;;;12.38;69.79;100719.16;1634627;86;21092;-79
2022/09/07 05:26:29;;;;;;;5.83;2.33;;;;;;;12.44;69.53;100717.59;1633895;86;21146;-84
2022/09/07 05:28:57;;;;;;;4.60;2.50;;;;;;;12.46;69.62;100722.34;1635414;86;21338;-84
2022/09/07 05:31:23;;;;;;;6.55;2.67;;;;;;;12.49;69.79;100727.02;1634810;87;21081;-83
2022/09/07 05:33:53;;;;;;;4.05;2.17;;;;;;;12.59;69.71;100729.30;1634582;86;21081;-83
2022/09/07 05:36:21;;;;;;;12.50;2.77;;;;;;;12.67;69.36;100720.17;1634629;86;21073;-81
2022/09/07 05:38:48;;;;;;;5.58;2.52;;;;;;;12.76;69.34;100721.58;1634635;86;21138;-79
2022/09/07 05:41:21;;;;;;;5.37;2.22;;;;;;;12.84;68.90;100718.63;1634279;86;21069;-84
2022/09/07 05:43:49;;;;;;;4.22;2.55;;;;;;;12.87;68.43;100719.82;1634244;86;21061;-83
2022/09/07 05:46:17;;;;;;;4.42;1.95;;;;;;;12.90;68.43;100717.91;1634870;85;21089;-83
2022/09/07 05:48:44;;;;;;;4.20;2.20;;;;;;;12.96;68.15;100711.53;1634534;86;21042;-83
2022/09/07 05:51:13;;;;;;;8.28;2.12;;;;;;;13.01;67.83;100710.03;1635242;86;21157;-81
2022/09/07 05:53:43;;;;;;;4.20;2.60;;;;;;;13.08;67.90;100711.03;1629697;86;21024;-82
2022/09/07 05:56:11;;;;;;;4.20;2.50;;;;;;;13.12;67.60;100708.66;1635371;86;27972;-83
2022/09/07 05:58:38;;;;;;;3.42;1.80;;;;;;;13.17;67.20;100714.58;1634619;86;21081;-80
2022/09/07 06:01:11;;;;;;;3.77;2.40;;;;;;;13.20;67.20;100714.06;1634926;85;21582;-75
2022/09/07 06:03:40;;;;;;;3.15;2.00;;;;;;;13.23;66.94;100713.46;1639522;86;21127;-84
2022/09/07 06:06:18;;;;;;;7.25;2.55;;;;;;;13.26;66.75;100712.51;1635289;87;21055;-78
2022/09/07 06:08:51;;;;;;;10.23;2.30;;;;;;;13.29;66.75;100709.27;1635948;86;21546;-80
2022/09/07 06:11:21;;;;;;;4.05;1.90;;;;;;;13.31;66.67;100714.02;1635694;87;21096;-79
2022/09/07 06:13:49;;;;;;;4.62;2.35;;;;;;;13.36;66.54;100718.63;1635410;87;21657;-79
2022/09/07 06:16:17;;;;;;;4.45;2.00;;;;;;;13.42;66.45;100712.70;1635680;87;21077;-76
2022/09/07 06:18:46;;;;;;;3.35;2.15;;;;;;;13.45;66.39;100720.47;1635167;87;21072;-79
2022/09/07 06:21:19;;;;;;;4.80;2.02;;;;;;;13.49;66.29;100719.39;1635613;87;21117;-79
2022/09/07 06:23:47;;;;;;;5.35;2.30;;;;;;;13.53;66.44;100715.72;1634247;86;21129;-77
2022/09/07 06:26:16;;;;;;;5.03;2.08;;;;;;;13.59;66.38;100716.76;1635341;86;21081;-78
2022/09/07 06:28:46;;;;;;;4.62;2.02;;;;;;;13.65;66.42;100718.27;1635408;86;21132;-79
2022/09/07 06:31:16;;;;;;;3.17;2.00;;;;;;;13.70;66.12;100718.91;1635158;87;21563;-80
2022/09/07 06:33:44;;;;;;;5.60;2.22;;;;;;;13.76;66.06;100722.59;1634869;87;21050;-78
2022/09/07 06:36:21;;;;;;;5.83;2.33;;;;;;;13.82;65.99;100719.20;1635598;86;21132;-82
2022/09/07 06:38:49;;;;;;;4.60;2.20;;;;;;;13.88;65.76;100718.06;1634079;86;21150;-76
2022/09/07 06:41:27;;;;;;;3.87;2.40;;;;;;;13.97;65.95;100718.13;1635718;85;21165;-76
2022/09/07 06:43:56;;;;;;;5.03;2.40;;;;;;;14.03;65.82;100719.16;1635469;87;21128;-76
2022/09/07 06:46:24;;;;;;;3.42;2.02;;;;;;;14.11;65.61;100718.81;1635693;85;21049;-77
2022/09/07 06:48:54;;;;;;;5.65;2.22;;;;;;;14.17;65.83;100713.25;1633790;86;21589;-81
2022/09/07 06:51:25;;;;;;;;;;;;;;;14.25;65.53;100716.38;1636899;86;21133;-75
2022/09/07 06:53:54;;;;;;;4.55;2.40;;;;;;;14.33;65.21;100717.31;1635531;86;21956;-81
2022/09/07 06:56:21;;;;;;;6.60;2.42;;;;;;;14.39;65.33;100713.09;1634394;86;21077;-84
2022/09/07 06:58:53;;;;;;;4.22;2.12;;;;;;;14.47;65.46;100717.53;1635310;86;21519;-80
2022/09/07 07:01:22;;;;;;;5.85;2.27;;;;;;;14.56;65.18;100723.70;1634945;86;21062;-80
2022/09/07 07:03:52;;;;;;;4.00;2.45;;;;;;;14.63;64.93;100722.48;1634192;86;21277;-79
2022/09/07 07:06:19;;;;;;;5.47;2.17;;;;;;;14.72;64.72;100725.14;1634625;86;21538;-79
2022/09/07 07:08:47;;;;;;;9.05;2.62;;;;;;;14.80;64.51;100720.78;1633599;86;21081;-80
2022/09/07 07:11:15;;;;;;;5.72;2.22;;;;;;;14.88;64.54;100722.13;1634831;86;21049;-81
2022/09/07 07:13:44;;;;;;;3.35;2.20;;;;;;;14.99;64.34;100718.08;1634595;86;21073;-80
2022/09/07 07:16:14;;;;;;;5.30;2.47;;;;;;;15.10;64.23;100710.47;1634146;86;21494;-81
2022/09/07 07:18:42;;;;;;;4.87;2.42;;;;;;;15.20;64.18;100706.44;1635179;85;21127;-81
2022/09/07 07:21:12;;;;;;;6.83;2.58;;;;;;;15.29;64.21;100708.59;1634225;86;21483;-79
2022/09/07 07:23:40;;;;;;;5.00;2.50;;;;;;;15.36;63.67;100709.16;1635256;85;21101;-79
2022/09/07 07:26:17;;;;;;;6.47;2.80;;;;;;;15.44;63.71;100709.61;1634808;86;21079;-79
2022/09/07 07:28:47;;;;;;;6.28;2.85;;;;;;;15.53;63.63;100706.47;1634604;86;21077;-80
2022/09/07 07:31:17;;;;;;;4.22;2.87;;;;;;;15.62;63.63;100707.77;1622734;87;21231;-81
2022/09/07 07:33:46;;;;;;;5.75;2.98;;;;;;;15.74;63.35;100710.25;1644835;87;23486;-91
2022/09/07 07:36:24;;;;;;;7.97;2.37;;;;;;;15.84;63.23;100702.22;1635711;87;20993;-79
2022/09/07 07:38:54;;;;;;;5.10;2.67;;;;;;;15.94;63.32;100692.02;1634965;87;21089;-84
2022/09/07 07:41:25;;;;;;;6.20;2.42;;;;;;;16.05;63.10;100691.80;1636229;86;21073;-82
2022/09/07 07:43:58;;;;;;;4.75;2.65;;;;;;;16.15;63.00;100698.74;1634901;87;21139;-81
2022/09/07 07:46:27;;;;;;;4.55;2.33;;;;;;;16.27;63.26;100698.08;1635230;87;21033;-82
2022/09/07 07:48:54;;;;;;;6.50;2.70;;;;;;;16.38;62.87;100697.92;1635421;86;21495;-83
2022/09/07 07:51:21;;;;;;;5.87;2.70;;;;;;;16.56;62.86;100697.36;1635322;86;21088;-81
2022/09/07 07:53:48;;;;;;;8.45;3.05;;;;;;;16.56;62.86;100697.36;1635011;87;21144;-87
2022/09/07 07:56:15;;;;;;;8.18;2.92;;;;;;;16.64;62.58;100689.84;1637269;87;21575;-76
2022/09/07 07:58:46;;;;;;;9.43;2.77;;;;;;;16.76;62.52;100697.05;1637453;87;21023;-75
2022/09/07 08:01:16;;;;;;;8.73;3.00;;;;;;;16.86;62.52;100693.45;1637855;86;21655;-75
2022/09/07 08:03:46;;;;;;;5.58;2.95;;;;;;;16.99;62.43;100694.88;1637757;85;21022;-76
2022/09/07 08:06:17;;;;;;;4.40;3.12;;;;;;;17.07;62.18;100686.89;1638033;87;21103;-75
2022/09/07 08:08:45;;;;;;;6.22;2.75;;;;;;;17.16;62.07;100691.63;1637648;86;21142;-76
2022/09/07 08:11:17;;;;;;;8.08;3.20;;;;;;;17.26;61.68;100688.42;1637587;86;21555;-76
2022/09/07 08:13:48;;;;;;;6.90;2.75;;;;;;;17.26;61.49;100673.84;1637663;87;21137;-76
2022/09/07 08:16:16;;;;;;;5.92;2.83;;;;;;;17.45;61.67;100692.13;1637985;86;21054;-75
2022/09/07 08:18:44;;;;;;;8.38;3.10;;;;;;;17.60;61.49;100699.16;1637837;86;21053;-75
2022/09/07 08:21:15;;;;;;;7.15;3.05;;;;;;;17.76;61.47;100695.94;1637810;86;21200;-77
2022/09/07 08:23:43;;;;;;;8.35;3.25;;;;;;;17.91;61.27;100691.50;1637537;86;20966;-75
2022/09/07 08:26:11;;;;;;;4.67;2.87;;;;;;;18.07;61.17;100690.06;1637851;86;21498;-75
2022/09/07 08:28:42;;;;;;;5.78;2.92;;;;;;;18.19;60.88;100695.05;1637532;87;21073;-75
2022/09/07 08:31:13;;;;;;;10.95;3.42;;;;;;;18.33;60.61;100692.84;1637560;87;21053;-75
2022/09/07 08:33:42;;;;;;;7.47;3.33;;;;;;;18.48;60.30;100694.02;1638462;86;21132;-75
2022/09/07 08:36:16;;;;;;;5.58;3.00;;;;;;;18.60;60.09;100685.72;1637811;86;21002;-75
2022/09/07 08:38:43;;;;;;;8.73;3.42;;;;;;;18.77;60.16;100686.44;1637284;87;21098;-75
2022/09/07 08:41:49;;;;;;;4.97;3.00;;;;;;;18.93;59.86;100689.78;1638267;86;21030;-75
2022/09/07 08:44:36;;;;;;;5.47;3.37;;;;;;;19.07;59.67;100692.83;1588175;87;21507;-75
2022/09/07 08:47:35;;;;;;;6.08;3.08;;;;;;;19.22;59.27;100687.78;1637766;86;21142;-75
2022/09/07 08:50:15;;;;;;;7.15;3.27;;;;;;;19.36;59.35;100674.38;1621828;87;21495;-75
2022/09/07 08:53:04;;;;;;;4.33;3.00;;;;;;;19.51;58.97;100671.16;1637569;86;21069;-75
2022/09/07 08:55:51;;;;;;;7.27;3.03;;;;;;;19.64;58.77;100665.80;1637835;87;21030;-78
2022/09/07 08:58:45;;;;;;;7.45;3.50;;;;;;;19.75;58.60;100655.28;1637780;87;21094;-75
2022/09/07 09:01:21;;;;;;;7.87;3.27;;;;;;;19.88;58.06;100659.26;1624093;86;21137;-75
2022/09/07 09:03:49;;;;;;;6.95;3.47;;;;;;;20.04;57.95;100655.86;1638624;85;21065;-75
2022/09/07 09:06:36;;;;;;;8.00;3.20;;;;;;;20.20;57.73;100652.94;1638098;87;20942;-75
2022/09/07 09:09:31;;;;;;;6.65;3.62;;;;;;;20.33;57.28;100646.21;1638235;87;21117;-75
2022/09/07 09:12:10;;;;;;;9.50;3.25;;;;;;;20.46;57.10;100645.67;1646603;87;21078;-75
2022/09/07 09:15:04;;;;;;;9.80;3.67;;;;;;;20.60;56.52;100647.83;1638122;87;21950;-76
2022/09/07 09:17:45;;;;;;;6.80;3.35;;;;;;;20.67;56.03;100645.92;1638326;86;21035;-76
2022/09/07 09:20:26;;;;;;;8.33;4.03;;;;;;;20.78;55.76;100646.91;1637826;87;21109;-75
2022/09/07 09:22:59;;;;;;;7.80;3.75;;;;;;;20.84;55.64;100642.44;1637954;87;20997;-76
2022/09/07 09:25:32;;;;;;;6.20;3.40;;;;;;;20.92;55.53;100640.04;1638053;86;21070;-76
2022/09/07 09:28:00;;;;;;;7.20;3.22;;;;;;;21.00;55.07;100642.12;1632142;87;21335;-76
2022/09/07 09:30:27;;;;;;;6.83;3.40;;;;;;;21.06;55.04;100636.31;1638391;87;20934;-76
2022/09/07 09:33:18;;;;;;;6.90;3.50;;;;;;;21.15;54.94;100637.80;1638256;87;21031;-75
2022/09/07 09:35:49;;;;;;;8.58;4.03;;;;;;;21.27;54.66;100639.14;1635336;87;20942;-75
2022/09/07 09:38:38;;;;;;;8.70;3.95;;;;;;;21.43;54.38;100638.83;1638271;86;21120;-76
2022/09/07 09:41:10;;;;;;;13.10;4.45;;;;;;;21.51;54.11;100633.25;1635842;87;22087;-75
2022/09/07 09:43:54;;;;;;;18.55;5.87;;;;;;;21.60;53.86;100631.17;1638205;86;21471;-76
2022/09/07 09:46:36;;;;;;;8.70;4.12;;;;;;;21.71;53.60;100621.47;1636057;87;21451;-76
2022/09/07 09:49:17;;;;;;;7.12;3.92;;;;;;;21.77;53.04;100623.16;1638220;87;21034;-76
2022/09/07 09:51:52;;;;;;;6.20;3.55;;;;;;;21.90;53.03;100628.84;1636694;87;21193;-76
2022/09/07 09:54:27;;;;;;;10.25;3.77;;;;;;;22.05;52.66;100629.77;1638130;86;21528;-76
2022/09/07 09:56:54;;;;;;;7.97;3.60;;;;;;;22.22;52.67;100627.56;1638386;87;21073;-75
2022/09/07 09:59:27;;;;;;;6.72;3.50;;;;;;;22.39;52.57;100623.04;1638210;87;21014;-76
2022/09/07 10:01:55;;;;;;;5.90;3.58;;;;;;;22.51;52.35;100617.64;1638437;87;21061;-76
2022/09/07 10:04:33;;;;;;;10.00;3.67;;;;;;;22.61;51.73;100621.22;1638232;86;21069;-75
2022/09/07 10:07:08;;;;;;;5.35;3.22;;;;;;;22.70;51.48;100617.80;1638276;86;21134;-76
2022/09/07 10:09:42;;;;;;;5.65;3.55;;;;;;;22.83;51.14;100616.24;1636984;87;21069;-75
2022/09/07 10:12:30;;;;;;;6.00;3.55;;;;;;;22.93;50.91;100618.50;1638153;87;21034;-76
2022/09/07 10:15:01;;;;;;;10.00;3.85;;;;;;;23.05;50.59;100614.79;1638506;87;21171;-76
2022/09/07 10:17:36;;;;;;;6.22;3.52;;;;;;;23.17;50.33;100611.57;1638317;87;21112;-75
2022/09/07 10:20:23;;;;;;;5.37;2.87;;;;;;;23.33;50.17;100611.06;1638386;87;21119;-79
2022/09/07 10:22:58;;;;;;;4.97;3.70;;;;;;;23.48;49.99;100614.24;1638133;87;21054;-76
2022/09/07 10:25:43;;;;;;;6.22;3.52;;;;;;;23.66;49.40;100617.10;1638507;87;21504;-76
2022/09/07 10:28:18;;;;;;;6.42;3.72;;;;;;;23.82;49.12;100611.62;1638235;87;21532;-76
2022/09/07 10:31:07;;;;;;;8.80;3.42;;;;;;;23.97;48.74;100608.08;1638526;87;21246;-75
2022/09/07 10:34:07;;;;;;;8.33;3.37;;;;;;;24.15;48.75;100600.19;1637965;86;21282;-76
2022/09/07 10:36:54;;;;;;;4.20;3.25;;;;;;;24.36;48.38;100600.54;1623442;87;21570;-75
2022/09/07 10:39:26;;;;;;;9.75;3.60;;;;;;;24.51;48.30;100595.66;1636456;86;21475;-76
2022/09/07 10:42:23;;;;;;;6.67;3.58;;;;;;;24.58;48.04;100600.78;1638434;87;21062;-76
2022/09/07 10:45:14;;;;;;;6.05;3.30;;;;;;;24.62;47.64;100597.68;1624037;87;21070;-76
2022/09/07 10:47:58;;;;;;;7.87;3.22;;;;;;;24.78;47.86;100597.09;1630259;87;21099;-76
2022/09/07 10:50:50;;;;;;;8.20;3.35;;;;;;;24.99;47.41;100594.21;1638460;87;21061;-75
2022/09/07 10:54:10;;;;;;;5.95;3.12;;;;;;;25.11;46.71;100590.38;1638497;87;21006;-76
2022/09/07 10:57:06;;;;;;;7.90;3.05;;;;;;;25.09;46.22;100588.84;1638168;87;21045;-76
2022/09/07 10:59:39;;;;;;;4.97;3.30;;;;;;;25.16;45.97;100588.61;1638164;87;21081;-76
2022/09/07 11:02:32;;;;;;;7.40;3.30;;;;;;;25.26;45.56;100584.57;1638507;86;21110;-76
2022/09/07 11:05:20;;;;;;;5.17;3.35;;;;;;;25.36;45.46;100588.91;1638232;86;21019;-77
2022/09/07 11:08:13;;;;;;;6.65;2.87;;;;;;;25.58;45.40;100587.67;1638222;87;21482;-77
2022/09/07 11:10:58;;;;;;;4.90;3.20;;;;;;;25.75;45.33;100584.67;1637719;87;21129;-76
2022/09/07 11:13:29;;;;;;;4.67;3.27;;;;;;;25.89;44.91;100584.69;1637642;86;21532;-76
2022/09/07 11:16:16;;;;;;;9.75;3.20;;;;;;;25.94;44.45;100581.52;1638220;86;21558;-76
2022/09/07 11:19:08;;;;;;;4.12;3.02;;;;;;;26.00;44.57;100572.38;1638069;87;21077;-76
2022/09/07 11:22:02;;;;;;;7.55;3.35;;;;;;;26.12;44.42;100570.30;1638118;86;21070;-76
2022/09/07 11:24:37;;;;;;;5.75;2.90;;;;;;;26.28;44.00;100565.59;1637892;86;21014;-76
2022/09/07 11:27:11;;;;;;;6.37;3.02;;;;;;;26.53;43.65;100561.28;1638434;86;21077;-76
2022/09/07 11:29:56;;;;;;;4.80;3.30;;;;;;;26.56;43.31;100564.16;1638284;86;21098;-78
2022/09/07 11:32:30;;;;;;;4.37;3.40;;;;;;;26.56;43.05;100563.66;1638052;87;21022;-76
2022/09/07 11:35:15;;;;;;;4.45;3.10;;;;;;;26.68;43.13;100570.45;1638185;87;21022;-75
2022/09/07 11:37:58;;;;;;;5.87;3.70;;;;;;;26.86;43.18;100561.52;1586749;87;21105;-82
2022/09/07 11:40:38;;;;;;;7.03;3.37;;;;;;;26.88;42.59;100564.88;1648630;86;21025;-77
2022/09/07 11:43:22;;;;;;;6.75;3.20;;;;;;;26.98;42.57;100558.05;1649088;87;21106;-77
2022/09/07 11:46:19;;;;;;;4.40;2.87;;;;;;;27.08;42.47;100552.06;1642293;86;21010;-76
2022/09/07 11:48:53;;;;;;;5.22;3.25;;;;;;;27.23;42.33;100542.40;1632358;86;20993;-80
2022/09/07 11:51:46;;;;;;;6.80;3.08;;;;;;;27.38;42.17;100534.58;1638120;86;21105;-79
2022/09/07 11:54:30;;;;;;;5.87;3.20;;;;;;;27.42;41.97;100538.61;1638368;86;21525;-76
2022/09/07 11:57:09;;;;;;;7.15;3.17;;;;;;;27.40;42.15;100537.92;1638106;87;21943;-77
2022/09/07 12:00:10;;;;;;;5.22;3.25;;;;;;;27.39;41.87;100542.14;1637175;86;21105;-80
2022/09/07 12:02:49;;;;;;;7.85;3.25;;;;;;;27.42;41.88;100544.50;1638066;87;21085;-80